sensor_id;sensor_type;location;lat;lon;timestamp;pressure;altitude;pressure_sealevel;temperature;humidity
71465;BME280;59274;49.874;9.154;2023-11-21T00:00:51;99650.53;;;8.72;100.00
71465;BME280;59274;49.874;9.154;2023-11-21T00:03:16;99652.16;;;8.80;100.00
71465;BME280;59274;49.874;9.154;2023-11-21T00:05:42;99650.66;;;8.86;100.00
71465;BME280;59274;49.874;9.154;2023-11-21T00:08:08;99650.59;;;8.83;100.00
71465;BME280;59274;49.874;9.154;2023-11-21T00:10:34;99653.31;;;8.83;100.00
71465;BME280;59274;49.874;9.154;2023-11-21T00:13:00;99649.81;;;8.82;100.00
71465;BME280;59274;49.874;9.154;2023-11-21T00:15:28;99657.22;;;8.85;100.00
71465;BME280;59274;49.874;9.154;2023-11-21T00:17:53;99654.09;;;8.83;100.00
71465;BME280;59274;49.874;9.154;2023-11-21T00:20:18;99662.16;;;8.76;100.00
71465;BME280;59274;49.874;9.154;2023-11-21T00:22:44;99657.53;;;8.77;100.00
71465;BME280;59274;49.874;9.154;2023-11-21T00:25:12;99647.47;;;8.77;100.00
71465;BME280;59274;49.874;9.154;2023-11-21T00:27:41;99662.91;;;8.73;100.00
71465;BME280;59274;49.874;9.154;2023-11-21T00:30:06;99653.59;;;8.71;100.00
71465;BME280;59274;49.874;9.154;2023-11-21T00:32:34;99665.63;;;8.73;100.00
71465;BME280;59274;49.874;9.154;2023-11-21T00:35:01;99660.59;;;8.75;100.00
71465;BME280;59274;49.874;9.154;2023-11-21T00:37:26;99647.50;;;8.81;100.00
71465;BME280;59274;49.874;9.154;2023-11-21T00:39:51;99648.78;;;8.94;100.00
71465;BME280;59274;49.874;9.154;2023-11-21T00:42:17;99658.41;;;8.91;100.00
71465;BME280;59274;49.874;9.154;2023-11-21T00:44:42;99654.16;;;8.90;100.00
71465;BME280;59274;49.874;9.154;2023-11-21T00:47:08;99652.66;;;8.96;100.00
71465;BME280;59274;49.874;9.154;2023-11-21T00:49:33;99646.88;;;8.98;100.00
71465;BME280;59274;49.874;9.154;2023-11-21T00:51:59;99650.41;;;9.06;100.00
71465;BME280;59274;49.874;9.154;2023-11-21T00:54:24;99648.41;;;8.99;100.00
71465;BME280;59274;49.874;9.154;2023-11-21T00:56:49;99646.91;;;9.05;100.00
71465;BME280;59274;49.874;9.154;2023-11-21T00:59:15;99648.06;;;9.00;100.00
71465;BME280;59274;49.874;9.154;2023-11-21T01:01:40;99648.44;;;9.02;100.00
71465;BME280;59274;49.874;9.154;2023-11-21T01:04:06;99651.13;;;9.02;100.00
71465;BME280;59274;49.874;9.154;2023-11-21T01:06:32;99646.91;;;9.05;100.00
71465;BME280;59274;49.874;9.154;2023-11-21T01:08:58;99652.69;;;9.00;100.00
71465;BME280;59274;49.874;9.154;2023-11-21T01:11:23;99660.09;;;9.10;100.00
71465;BME280;59274;49.874;9.154;2023-11-21T01:13:49;99655.03;;;9.05;100.00
71465;BME280;59274;49.874;9.154;2023-11-21T01:16:14;99667.38;;;9.02;100.00
71465;BME280;59274;49.874;9.154;2023-11-21T01:18:40;99668.19;;;9.03;100.00
71465;BME280;59274;49.874;9.154;2023-11-21T01:21:05;99671.59;;;8.96;100.00
71465;BME280;59274;49.874;9.154;2023-11-21T01:23:32;99668.16;;;8.99;100.00
71465;BME280;59274;49.874;9.154;2023-11-21T01:25:58;99668.53;;;8.98;100.00
71465;BME280;59274;49.874;9.154;2023-11-21T01:28:23;99670.16;;;9.06;100.00
71465;BME280;59274;49.874;9.154;2023-11-21T01:30:49;99670.16;;;9.10;100.00
71465;BME280;59274;49.874;9.154;2023-11-21T01:33:15;99669.72;;;9.04;100.00
71465;BME280;59274;49.874;9.154;2023-11-21T01:35:41;99676.28;;;8.99;100.00
71465;BME280;59274;49.874;9.154;2023-11-21T01:38:07;99678.16;;;8.95;100.00
71465;BME280;59274;49.874;9.154;2023-11-21T01:40:33;99675.56;;;9.06;100.00
71465;BME280;59274;49.874;9.154;2023-11-21T01:42:59;99685.25;;;9.07;100.00
71465;BME280;59274;49.874;9.154;2023-11-21T01:45:24;99680.56;;;9.00;100.00
71465;BME280;59274;49.874;9.154;2023-11-21T01:47:50;99679.28;;;8.87;100.00
71465;BME280;59274;49.874;9.154;2023-11-21T01:50:17;99677.78;;;8.93;100.00
71465;BME280;59274;49.874;9.154;2023-11-21T01:52:45;99683.50;;;8.85;100.00
71465;BME280;59274;49.874;9.154;2023-11-21T01:55:11;99680.44;;;8.90;100.00
71465;BME280;59274;49.874;9.154;2023-11-21T01:57:37;99682.25;;;8.75;100.00
71465;BME280;59274;49.874;9.154;2023-11-21T02:00:04;99673.81;;;8.80;100.00
71465;BME280;59274;49.874;9.154;2023-11-21T02:02:50;99674.53;;;8.77;100.00
71465;BME280;59274;49.874;9.154;2023-11-21T02:05:16;99681.47;;;8.75;100.00
71465;BME280;59274;49.874;9.154;2023-11-21T02:07:43;99677.53;;;8.65;100.00
71465;BME280;59274;49.874;9.154;2023-11-21T02:10:09;99677.53;;;8.65;100.00
71465;BME280;59274;49.874;9.154;2023-11-21T02:12:35;99677.63;;;8.76;100.00
71465;BME280;59274;49.874;9.154;2023-11-21T02:15:04;99680.31;;;8.72;100.00
71465;BME280;59274;49.874;9.154;2023-11-21T02:17:35;99679.47;;;8.64;100.00
71465;BME280;59274;49.874;9.154;2023-11-21T02:20:00;99684.56;;;8.73;100.00
71465;BME280;59274;49.874;9.154;2023-11-21T02:22:30;99676.03;;;8.71;100.00
71465;BME280;59274;49.874;9.154;2023-11-21T02:24:56;99673.69;;;8.70;100.00
71465;BME280;59274;49.874;9.154;2023-11-21T02:27:23;99675.63;;;8.69;100.00
71465;BME280;59274;49.874;9.154;2023-11-21T02:29:49;99678.69;;;8.64;100.00
71465;BME280;59274;49.874;9.154;2023-11-21T02:32:14;99683.72;;;8.66;100.00
71465;BME280;59274;49.874;9.154;2023-11-21T02:34:42;99678.25;;;8.58;100.00
71465;BME280;59274;49.874;9.154;2023-11-21T02:37:08;99679.47;;;8.68;100.00
71465;BME280;59274;49.874;9.154;2023-11-21T02:39:34;99684.88;;;8.64;100.00
71465;BME280;59274;49.874;9.154;2023-11-21T02:41:59;99684.81;;;8.61;100.00
71465;BME280;59274;49.874;9.154;2023-11-21T02:44:25;99677.47;;;8.58;100.00
71465;BME280;59274;49.874;9.154;2023-11-21T02:46:51;99674.00;;;8.61;100.00
71465;BME280;59274;49.874;9.154;2023-11-21T02:49:16;99679.47;;;8.64;100.00
71465;BME280;59274;49.874;9.154;2023-11-21T02:51:42;99675.97;;;8.64;100.00
71465;BME280;59274;49.874;9.154;2023-11-21T02:54:07;99682.88;;;8.58;100.00
71465;BME280;59274;49.874;9.154;2023-11-21T02:56:33;99679.41;;;8.61;100.00
71465;BME280;59274;49.874;9.154;2023-11-21T02:59:00;99675.97;;;8.64;100.00
71465;BME280;59274;49.874;9.154;2023-11-21T03:01:26;99679.13;;;8.70;100.00
71465;BME280;59274;49.874;9.154;2023-11-21T03:03:52;99681.47;;;8.71;100.00
71465;BME280;59274;49.874;9.154;2023-11-21T03:06:18;99681.03;;;8.69;100.00
71465;BME280;59274;49.874;9.154;2023-11-21T03:08:44;99686.03;;;8.67;100.00
71465;BME280;59274;49.874;9.154;2023-11-21T03:11:09;99674.53;;;8.77;100.00
71465;BME280;59274;49.874;9.154;2023-11-21T03:13:38;99679.19;;;8.77;100.00
71465;BME280;59274;49.874;9.154;2023-11-21T03:16:04;99678.00;;;8.74;100.00
71465;BME280;59274;49.874;9.154;2023-11-21T03:18:31;99681.81;;;8.70;100.00
71465;BME280;59274;49.874;9.154;2023-11-21T03:20:57;99672.38;;;8.53;100.00
71465;BME280;59274;49.874;9.154;2023-11-21T03:23:22;99680.19;;;8.58;100.00
71465;BME280;59274;49.874;9.154;2023-11-21T03:25:47;99682.88;;;8.58;100.00
71465;BME280;59274;49.874;9.154;2023-11-21T03:28:13;99684.38;;;8.52;100.00
71465;BME280;59274;49.874;9.154;2023-11-21T03:30:38;99680.50;;;8.53;100.00
71465;BME280;59274;49.874;9.154;2023-11-21T03:33:04;99680.97;;;8.58;100.00
71465;BME280;59274;49.874;9.154;2023-11-21T03:35:29;99685.97;;;8.60;100.00
71465;BME280;59274;49.874;9.154;2023-11-21T03:37:54;99682.53;;;8.63;100.00
71465;BME280;59274;49.874;9.154;2023-11-21T03:40:20;99677.56;;;8.69;100.00
71465;BME280;59274;49.874;9.154;2023-11-21T03:42:49;99681.38;;;8.64;100.00
71465;BME280;59274;49.874;9.154;2023-11-21T03:45:14;99686.81;;;8.68;100.00
71465;BME280;59274;49.874;9.154;2023-11-21T03:47:43;99688.38;;;8.69;100.00
71465;BME280;59274;49.874;9.154;2023-11-21T03:50:08;99692.22;;;8.64;100.00
71465;BME280;59274;49.874;9.154;2023-11-21T03:52:34;99695.34;;;8.66;100.00
71465;BME280;59274;49.874;9.154;2023-11-21T03:55:00;99699.63;;;8.71;100.00
71465;BME280;59274;49.874;9.154;2023-11-21T03:57:26;99697.66;;;8.68;100.00
71465;BME280;59274;49.874;9.154;2023-11-21T03:59:53;99706.22;;;8.73;100.00
71465;BME280;59274;49.874;9.154;2023-11-21T04:02:18;99709.31;;;8.72;100.00
71465;BME280;59274;49.874;9.154;2023-11-21T04:04:43;99701.91;;;8.65;100.00
71465;BME280;59274;49.874;9.154;2023-11-21T04:07:09;99700.03;;;8.73;100.00
71465;BME280;59274;49.874;9.154;2023-11-21T04:09:34;99706.22;;;8.73;100.00
71465;BME280;59274;49.874;9.154;2023-11-21T04:12:01;99706.63;;;8.75;100.00
71465;BME280;59274;49.874;9.154;2023-11-21T04:14:27;99705.47;;;8.76;100.00
71465;BME280;59274;49.874;9.154;2023-11-21T04:16:53;99708.91;;;8.70;100.00
71465;BME280;59274;49.874;9.154;2023-11-21T04:19:19;99719.38;;;8.75;100.00
71465;BME280;59274;49.874;9.154;2023-11-21T04:21:44;99721.75;;;8.80;100.00
71465;BME280;59274;49.874;9.154;2023-11-21T04:24:11;99720.13;;;8.72;100.00
71465;BME280;59274;49.874;9.154;2023-11-21T04:26:36;99723.31;;;8.81;100.00
71465;BME280;59274;49.874;9.154;2023-11-21T04:29:02;99718.72;;;8.85;100.00
71465;BME280;59274;49.874;9.154;2023-11-21T04:31:28;99721.00;;;8.83;100.00
71465;BME280;59274;49.874;9.154;2023-11-21T04:33:53;99727.19;;;8.83;100.00
71465;BME280;59274;49.874;9.154;2023-11-21T04:36:19;99725.63;;;8.79;100.00
71465;BME280;59274;49.874;9.154;2023-11-21T04:38:45;99731.06;;;8.82;100.00
71465;BME280;59274;49.874;9.154;2023-11-21T04:41:11;99734.91;;;8.81;100.00
71465;BME280;59274;49.874;9.154;2023-11-21T04:43:37;99732.97;;;8.78;100.00
71465;BME280;59274;49.874;9.154;2023-11-21T04:46:02;99732.53;;;8.76;100.00
71465;BME280;59274;49.874;9.154;2023-11-21T04:48:28;99728.28;;;8.75;100.00
71465;BME280;59274;49.874;9.154;2023-11-21T04:50:53;99734.84;;;8.74;100.00
71465;BME280;59274;49.874;9.154;2023-11-21T04:53:19;99732.25;;;8.85;100.00
71465;BME280;59274;49.874;9.154;2023-11-21T04:55:45;99730.66;;;8.80;100.00
71465;BME280;59274;49.874;9.154;2023-11-21T04:58:11;99741.88;;;8.79;100.00
71465;BME280;59274;49.874;9.154;2023-11-21T05:00:37;99735.31;;;8.83;100.00
71465;BME280;59274;49.874;9.154;2023-11-21T05:03:03;99738.00;;;8.80;100.00
71465;BME280;59274;49.874;9.154;2023-11-21T05:05:30;99734.03;;;8.70;100.00
71465;BME280;59274;49.874;9.154;2023-11-21T05:07:55;99741.75;;;8.68;100.00
71465;BME280;59274;49.874;9.154;2023-11-21T05:10:21;99752.50;;;8.61;100.00
71465;BME280;59274;49.874;9.154;2023-11-21T05:12:49;99749.06;;;8.64;100.00
71465;BME280;59274;49.874;9.154;2023-11-21T05:15:17;99762.63;;;8.68;100.00
71465;BME280;59274;49.874;9.154;2023-11-21T05:17:43;99758.75;;;8.65;100.00
71465;BME280;59274;49.874;9.154;2023-11-21T05:20:10;99767.59;;;8.62;100.00
71465;BME280;59274;49.874;9.154;2023-11-21T05:22:37;99761.81;;;8.63;100.00
71465;BME280;59274;49.874;9.154;2023-11-21T05:25:03;99772.63;;;8.63;100.00
71465;BME280;59274;49.874;9.154;2023-11-21T05:27:31;99773.16;;;8.76;100.00
71465;BME280;59274;49.874;9.154;2023-11-21T05:29:57;99782.25;;;8.61;100.00
71465;BME280;59274;49.874;9.154;2023-11-21T05:32:24;99783.81;;;8.58;100.00
71465;BME280;59274;49.874;9.154;2023-11-21T05:34:49;99783.81;;;8.58;100.00
71465;BME280;59274;49.874;9.154;2023-11-21T05:37:15;99800.06;;;8.62;100.00
71465;BME280;59274;49.874;9.154;2023-11-21T05:39:40;99802.41;;;8.63;100.00
71465;BME280;59274;49.874;9.154;2023-11-21T05:42:05;99797.38;;;8.62;100.00
71465;BME280;59274;49.874;9.154;2023-11-21T05:44:31;99803.91;;;8.57;100.00
71465;BME280;59274;49.874;9.154;2023-11-21T05:46:57;99810.47;;;8.60;100.00
71465;BME280;59274;49.874;9.154;2023-11-21T05:49:24;99811.22;;;8.57;100.00
71465;BME280;59274;49.874;9.154;2023-11-21T05:51:52;99805.47;;;8.62;100.00
71465;BME280;59274;49.874;9.154;2023-11-21T05:54:19;99805.47;;;8.62;100.00
71465;BME280;59274;49.874;9.154;2023-11-21T05:56:44;99810.44;;;8.56;100.00
71465;BME280;59274;49.874;9.154;2023-11-21T05:59:10;99806.09;;;8.48;100.00
71465;BME280;59274;49.874;9.154;2023-11-21T06:01:35;99811.97;;;8.54;100.00
71465;BME280;59274;49.874;9.154;2023-11-21T06:04:04;99814.38;;;8.62;100.00
71465;BME280;59274;49.874;9.154;2023-11-21T06:06:29;99822.47;;;8.59;100.00
71465;BME280;59274;49.874;9.154;2023-11-21T06:08:56;99828.28;;;8.61;100.00
71465;BME280;59274;49.874;9.154;2023-11-21T06:11:22;99826.72;;;8.60;100.00
71465;BME280;59274;49.874;9.154;2023-11-21T06:13:47;99831.91;;;8.72;100.00
71465;BME280;59274;49.874;9.154;2023-11-21T06:16:13;99828.78;;;8.70;100.00
71465;BME280;59274;49.874;9.154;2023-11-21T06:18:45;99833.38;;;8.66;100.00
71465;BME280;59274;49.874;9.154;2023-11-21T06:21:10;99836.63;;;8.79;100.00
71465;BME280;59274;49.874;9.154;2023-11-21T06:23:36;99829.28;;;8.79;100.00
71465;BME280;59274;49.874;9.154;2023-11-21T06:26:01;99831.16;;;8.75;100.00
71465;BME280;59274;49.874;9.154;2023-11-21T06:28:27;99828.44;;;8.72;100.00
71465;BME280;59274;49.874;9.154;2023-11-21T06:30:52;99837.72;;;8.74;100.00
71465;BME280;59274;49.874;9.154;2023-11-21T06:33:18;99844.25;;;8.70;100.00
71465;BME280;59274;49.874;9.154;2023-11-21T06:35:44;99846.16;;;8.66;100.00
71465;BME280;59274;49.874;9.154;2023-11-21T06:38:10;99858.81;;;8.58;100.00
71465;BME280;59274;49.874;9.154;2023-11-21T06:40:38;99867.66;;;8.55;100.00
71465;BME280;59274;49.874;9.154;2023-11-21T06:43:04;99865.38;;;8.57;100.00
71465;BME280;59274;49.874;9.154;2023-11-21T06:45:32;99870.69;;;8.50;100.00
71465;BME280;59274;49.874;9.154;2023-11-21T06:47:57;99875.75;;;8.51;100.00
71465;BME280;59274;49.874;9.154;2023-11-21T06:50:22;99869.63;;;8.58;100.00
71465;BME280;59274;49.874;9.154;2023-11-21T06:52:48;99883.53;;;8.56;100.00
71465;BME280;59274;49.874;9.154;2023-11-21T06:55:13;99882.03;;;8.59;100.00
71465;BME280;59274;49.874;9.154;2023-11-21T06:57:39;99883.63;;;8.63;100.00
71465;BME280;59274;49.874;9.154;2023-11-21T07:00:05;99877.16;;;8.72;100.00
71465;BME280;59274;49.874;9.154;2023-11-21T07:02:31;99885.31;;;8.75;100.00
71465;BME280;59274;49.874;9.154;2023-11-21T07:04:59;99888.00;;;8.75;100.00
71465;BME280;59274;49.874;9.154;2023-11-21T07:07:25;99891.13;;;8.77;100.00
71465;BME280;59274;49.874;9.154;2023-11-21T07:09:50;99899.16;;;8.70;100.00
71465;BME280;59274;49.874;9.154;2023-11-21T07:12:17;99901.59;;;8.79;100.00
71465;BME280;59274;49.874;9.154;2023-11-21T07:14:43;99913.53;;;8.74;100.00
71465;BME280;59274;49.874;9.154;2023-11-21T07:17:10;99908.84;;;8.71;100.00
71465;BME280;59274;49.874;9.154;2023-11-21T07:19:37;99920.50;;;8.75;100.00
71465;BME280;59274;49.874;9.154;2023-11-21T07:22:03;99912.88;;;8.84;100.00
71465;BME280;59274;49.874;9.154;2023-11-21T07:24:28;99928.03;;;8.89;100.00
71465;BME280;59274;49.874;9.154;2023-11-21T07:26:54;99926.56;;;8.95;100.00
71465;BME280;59274;49.874;9.154;2023-11-21T07:29:23;99933.91;;;8.94;100.00
71465;BME280;59274;49.874;9.154;2023-11-21T07:31:52;99938.56;;;8.94;100.00
71465;BME280;59274;49.874;9.154;2023-11-21T07:34:17;99944.31;;;8.92;100.00
71465;BME280;59274;49.874;9.154;2023-11-21T07:36:43;99945.03;;;8.86;100.00
71465;BME280;59274;49.874;9.154;2023-11-21T07:39:08;99951.59;;;8.88;100.00
71465;BME280;59274;49.874;9.154;2023-11-21T07:41:37;99951.53;;;8.81;100.00
71465;BME280;59274;49.874;9.154;2023-11-21T07:44:04;99954.53;;;8.73;100.00
71465;BME280;59274;49.874;9.154;2023-11-21T07:46:30;99957.63;;;8.75;100.00
71465;BME280;59274;49.874;9.154;2023-11-21T07:48:55;99949.91;;;8.77;100.00
71465;BME280;59274;49.874;9.154;2023-11-21T07:51:20;99955.78;;;8.82;100.00
71465;BME280;59274;49.874;9.154;2023-11-21T07:53:47;99953.88;;;8.83;100.00
71465;BME280;59274;49.874;9.154;2023-11-21T07:56:12;99962.31;;;8.78;100.00
71465;BME280;59274;49.874;9.154;2023-11-21T07:58:38;99965.38;;;8.76;100.00
71465;BME280;59274;49.874;9.154;2023-11-21T08:01:04;99964.59;;;8.76;100.00
71465;BME280;59274;49.874;9.154;2023-11-21T08:03:30;99968.44;;;8.75;100.00
71465;BME280;59274;49.874;9.154;2023-11-21T08:05:56;99972.44;;;8.81;100.00
71465;BME280;59274;49.874;9.154;2023-11-21T08:08:23;99975.06;;;8.77;100.00
71465;BME280;59274;49.874;9.154;2023-11-21T08:10:49;99965.44;;;8.80;100.00
71465;BME280;59274;49.874;9.154;2023-11-21T08:13:22;99971.66;;;8.80;100.00
71465;BME280;59274;49.874;9.154;2023-11-21T08:15:48;99970.13;;;8.83;100.00
71465;BME280;59274;49.874;9.154;2023-11-21T08:18:13;99965.53;;;8.87;100.00
71465;BME280;59274;49.874;9.154;2023-11-21T08:20:40;99972.91;;;8.90;100.00
71465;BME280;59274;49.874;9.154;2023-11-21T08:23:05;99966.41;;;8.94;100.00
71465;BME280;59274;49.874;9.154;2023-11-21T08:25:31;99979.22;;;8.97;100.00
71465;BME280;59274;49.874;9.154;2023-11-21T08:27:58;99971.44;;;8.96;100.00
71465;BME280;59274;49.874;9.154;2023-11-21T08:30:24;99977.81;;;9.11;100.00
71465;BME280;59274;49.874;9.154;2023-11-21T08:32:50;99974.72;;;9.09;100.00
71465;BME280;59274;49.874;9.154;2023-11-21T08:35:18;99989.06;;;9.13;100.00
71465;BME280;59274;49.874;9.154;2023-11-21T08:37:44;99989.06;;;9.13;100.00
71465;BME280;59274;49.874;9.154;2023-11-21T08:40:10;99987.41;;;9.01;100.00
71465;BME280;59274;49.874;9.154;2023-11-21T08:42:37;99990.88;;;9.01;100.00
71465;BME280;59274;49.874;9.154;2023-11-21T08:45:04;99990.97;;;9.09;100.00
71465;BME280;59274;49.874;9.154;2023-11-21T08:47:29;99991.75;;;9.09;100.00
71465;BME280;59274;49.874;9.154;2023-11-21T08:49:55;100003.44;;;9.17;100.00
71465;BME280;59274;49.874;9.154;2023-11-21T08:52:21;100003.53;;;9.24;100.00
71465;BME280;59274;49.874;9.154;2023-11-21T08:54:49;100006.66;;;9.26;100.00
71465;BME280;59274;49.874;9.154;2023-11-21T08:57:24;100009.88;;;9.35;100.00
71465;BME280;59274;49.874;9.154;2023-11-21T08:59:50;100019.50;;;9.32;100.00
71465;BME280;59274;49.874;9.154;2023-11-21T09:02:21;100023.88;;;9.40;100.00
71465;BME280;59274;49.874;9.154;2023-11-21T09:04:49;100021.03;;;9.30;100.00
71465;BME280;59274;49.874;9.154;2023-11-21T09:07:16;100025.69;;;9.29;100.00
71465;BME280;59274;49.874;9.154;2023-11-21T09:09:41;100030.31;;;9.29;100.00
71465;BME280;59274;49.874;9.154;2023-11-21T09:12:07;100035.84;;;9.39;100.00
71465;BME280;59274;49.874;9.154;2023-11-21T09:14:32;100036.31;;;9.45;100.00
71465;BME280;59274;49.874;9.154;2023-11-21T09:16:59;100035.25;;;9.53;100.00
71465;BME280;59274;49.874;9.154;2023-11-21T09:19:24;100037.16;;;9.49;100.00
71465;BME280;59274;49.874;9.154;2023-11-21T09:21:50;100045.31;;;9.53;100.00
71465;BME280;59274;49.874;9.154;2023-11-21T09:24:16;100049.31;;;9.62;100.00
71465;BME280;59274;49.874;9.154;2023-11-21T09:26:41;100049.75;;;9.68;100.00
71465;BME280;59274;49.874;9.154;2023-11-21T09:29:07;100056.41;;;9.74;100.00
71465;BME280;59274;49.874;9.154;2023-11-21T09:31:33;100052.53;;;9.75;100.00
71465;BME280;59274;49.874;9.154;2023-11-21T09:33:59;100061.09;;;9.77;100.00
71465;BME280;59274;49.874;9.154;2023-11-21T09:36:24;100056.41;;;9.74;100.00
71465;BME280;59274;49.874;9.154;2023-11-21T09:38:52;100070.34;;;9.72;100.00
71465;BME280;59274;49.874;9.154;2023-11-21T09:41:32;100079.19;;;9.66;100.00
71465;BME280;59274;49.874;9.154;2023-11-21T09:44:02;100083.22;;;9.82;100.00
71465;BME280;59274;49.874;9.154;2023-11-21T09:46:33;100081.00;;;9.92;100.00
71465;BME280;59274;49.874;9.154;2023-11-21T09:49:00;100088.72;;;9.90;100.00
71465;BME280;59274;49.874;9.154;2023-11-21T09:51:31;100087.06;;;9.78;100.00
71465;BME280;59274;49.874;9.154;2023-11-21T09:53:59;100091.41;;;9.86;100.00
71465;BME280;59274;49.874;9.154;2023-11-21T09:56:27;100093.50;;;10.00;100.00
71465;BME280;59274;49.874;9.154;2023-11-21T09:58:53;100091.94;;;9.99;100.00
71465;BME280;59274;49.874;9.154;2023-11-21T10:01:19;100092.34;;;10.01;100.00
71465;BME280;59274;49.874;9.154;2023-11-21T10:03:46;100087.31;;;10.03;100.00
71465;BME280;59274;49.874;9.154;2023-11-21T10:06:13;100096.22;;;10.00;100.00
71465;BME280;59274;49.874;9.154;2023-11-21T10:08:41;100085.38;;;10.00;100.00
71465;BME280;59274;49.874;9.154;2023-11-21T10:11:08;100085.91;;;10.16;100.00
71465;BME280;59274;49.874;9.154;2023-11-21T10:13:37;100090.81;;;10.03;100.00
71465;BME280;59274;49.874;9.154;2023-11-21T10:16:04;100096.75;;;10.12;100.00
71465;BME280;59274;49.874;9.154;2023-11-21T10:18:33;100099.44;;;10.12;100.00
71465;BME280;59274;49.874;9.154;2023-11-21T10:21:00;100089.50;;;10.24;100.00
71465;BME280;59274;49.874;9.154;2023-11-21T10:23:26;100096.25;;;10.37;100.00
71465;BME280;59274;49.874;9.154;2023-11-21T10:25:52;100095.94;;;10.49;100.00
71465;BME280;59274;49.874;9.154;2023-11-21T10:28:18;100093.25;;;10.49;100.00
71465;BME280;59274;49.874;9.154;2023-11-21T10:30:45;100095.66;;;10.57;100.00
71465;BME280;59274;49.874;9.154;2023-11-21T10:33:11;100102.97;;;10.53;100.00
71465;BME280;59274;49.874;9.154;2023-11-21T10:35:48;100106.81;;;10.49;100.00
71465;BME280;59274;49.874;9.154;2023-11-21T10:38:19;100103.72;;;10.50;100.00
71465;BME280;59274;49.874;9.154;2023-11-21T10:40:46;100111.47;;;10.52;100.00
71465;BME280;59274;49.874;9.154;2023-11-21T10:43:13;100111.53;;;10.59;100.00
71465;BME280;59274;49.874;9.154;2023-11-21T10:45:40;100104.53;;;10.54;100.00
71465;BME280;59274;49.874;9.154;2023-11-21T10:48:12;100114.59;;;10.54;100.00
71465;BME280;59274;49.874;9.154;2023-11-21T10:50:41;100114.25;;;10.55;100.00
71465;BME280;59274;49.874;9.154;2023-11-21T10:53:06;100111.94;;;10.57;100.00
71465;BME280;59274;49.874;9.154;2023-11-21T10:55:34;100119.66;;;10.55;100.00
71465;BME280;59274;49.874;9.154;2023-11-21T10:58:02;100125.13;;;10.59;100.00
71465;BME280;59274;49.874;9.154;2023-11-21T11:00:34;100124.78;;;10.64;100.00
71465;BME280;59274;49.874;9.154;2023-11-21T11:03:00;100129.19;;;10.79;100.00
71465;BME280;59274;49.874;9.154;2023-11-21T11:05:27;100137.28;;;10.72;100.00
71465;BME280;59274;49.874;9.154;2023-11-21T11:08:05;100131.50;;;10.81;100.00
71465;BME280;59274;49.874;9.154;2023-11-21T11:10:31;100131.78;;;10.65;100.00
71465;BME280;59274;49.874;9.154;2023-11-21T11:12:58;100123.28;;;10.70;100.00
71465;BME280;59274;49.874;9.154;2023-11-21T11:15:27;100122.16;;;10.75;100.00
71465;BME280;59274;49.874;9.154;2023-11-21T11:17:54;100122.47;;;10.66;100.00
71465;BME280;59274;49.874;9.154;2023-11-21T11:20:24;100121.25;;;10.56;100.00
71465;BME280;59274;49.874;9.154;2023-11-21T11:36:45;100119.31;;;10.60;100.00
71465;BME280;59274;49.874;9.154;2023-11-21T11:39:36;100125.19;;;10.66;100.00
71465;BME280;59274;49.874;9.154;2023-11-21T11:42:03;100139.16;;;10.65;100.00
71465;BME280;59274;49.874;9.154;2023-11-21T11:50:10;100123.84;;;10.90;100.00
71465;BME280;59274;49.874;9.154;2023-11-21T11:52:40;100125.41;;;10.94;100.00
71465;BME280;59274;49.874;9.154;2023-11-21T11:55:08;100126.09;;;10.81;100.00
71465;BME280;59274;49.874;9.154;2023-11-21T11:57:37;100127.56;;;10.71;100.00
71465;BME280;59274;49.874;9.154;2023-11-21T12:00:16;100121.34;;;10.71;100.00
71465;BME280;59274;49.874;9.154;2023-11-21T12:02:45;100125.63;;;10.72;100.00
71465;BME280;59274;49.874;9.154;2023-11-21T12:05:12;100136.50;;;10.72;100.00
71465;BME280;59274;49.874;9.154;2023-11-21T12:07:43;100139.50;;;11.11;100.00
71465;BME280;59274;49.874;9.154;2023-11-21T12:10:14;100135.09;;;11.50;100.00
71465;BME280;59274;49.874;9.154;2023-11-21T12:12:52;100127.94;;;11.93;100.00
71465;BME280;59274;49.874;9.154;2023-11-21T12:15:18;100137.78;;;12.40;100.00
71465;BME280;59274;49.874;9.154;2023-11-21T12:17:45;100144.03;;;12.62;100.00
71465;BME280;59274;49.874;9.154;2023-11-21T12:20:12;100145.59;;;13.02;100.00
71465;BME280;59274;49.874;9.154;2023-11-21T12:22:50;100145.63;;;12.84;100.00
71465;BME280;59274;49.874;9.154;2023-11-21T12:25:23;100151.03;;;12.67;100.00
71465;BME280;59274;49.874;9.154;2023-11-21T12:27:49;100148.31;;;12.56;100.00
71465;BME280;59274;49.874;9.154;2023-11-21T12:30:17;100150.59;;;12.36;100.00
71465;BME280;59274;49.874;9.154;2023-11-21T12:32:49;100154.75;;;11.91;100.00
71465;BME280;59274;49.874;9.154;2023-11-21T12:35:15;100150.28;;;11.55;100.00
71465;BME280;59274;49.874;9.154;2023-11-21T12:37:42;100148.72;;;11.50;100.00
71465;BME280;59274;49.874;9.154;2023-11-21T12:40:09;100154.84;;;11.36;100.00
71465;BME280;59274;49.874;9.154;2023-11-21T12:42:48;100153.13;;;11.14;100.00
71465;BME280;59274;49.874;9.154;2023-11-21T12:47:48;100166.03;;;11.28;100.00
71465;BME280;59274;49.874;9.154;2023-11-21T12:50:15;100167.97;;;11.27;100.00
71465;BME280;59274;49.874;9.154;2023-11-21T12:52:45;100167.19;;;11.27;100.00
71465;BME280;59274;49.874;9.154;2023-11-21T12:55:19;100170.28;;;11.25;100.00
71465;BME280;59274;49.874;9.154;2023-11-21T12:57:57;100180.41;;;11.28;100.00
71465;BME280;59274;49.874;9.154;2023-11-21T13:00:32;100175.31;;;11.20;100.00
71465;BME280;59274;49.874;9.154;2023-11-21T13:02:59;100170.34;;;11.29;100.00
71465;BME280;59274;49.874;9.154;2023-11-21T13:05:29;100172.63;;;11.27;100.00
71465;BME280;59274;49.874;9.154;2023-11-21T13:07:56;100169.03;;;11.12;100.00
71465;BME280;59274;49.874;9.154;2023-11-21T13:10:26;100174.00;;;11.03;100.00
71465;BME280;59274;49.874;9.154;2023-11-21T13:12:57;100173.63;;;11.01;100.00
71465;BME280;59274;49.874;9.154;2023-11-21T13:15:24;100182.16;;;11.03;100.00